createdAt,value
2022-08-10T00:00:03.424Z,30.63
2022-08-10T00:02:58.240Z,30.62
2022-08-10T00:05:52.561Z,30.57
2022-08-10T00:08:35.493Z,30.59
2022-08-10T00:11:24.098Z,30.53
2022-08-10T00:14:13.499Z,30.50
2022-08-10T00:16:55.411Z,30.54
2022-08-10T00:20:04.077Z,30.51
2022-08-10T00:22:57.748Z,30.49
2022-08-10T00:25:41.187Z,30.41
2022-08-10T00:28:29.700Z,30.39
2022-08-10T00:31:11.378Z,30.37
2022-08-10T00:33:59.673Z,30.42
2022-08-10T00:36:41.079Z,30.44
2022-08-10T00:39:34.535Z,30.40
2022-08-10T00:42:20.107Z,30.40
2022-08-10T00:45:08.268Z,30.43
2022-08-10T00:47:50.137Z,30.41
2022-08-10T00:50:46.297Z,30.43
2022-08-10T00:53:44.134Z,30.51
2022-08-10T00:57:12.603Z,30.56
2022-08-10T00:59:29.141Z,30.55
2022-08-10T01:02:17.857Z,30.57
2022-08-10T01:05:02.250Z,30.63
2022-08-10T01:08:17.376Z,30.69
2022-08-10T01:12:39.750Z,30.72
2022-08-10T01:15:26.128Z,30.76
2022-08-10T01:18:21.139Z,30.77
2022-08-10T01:21:31.709Z,30.81
2022-08-10T01:24:43.363Z,30.89
2022-08-10T01:27:43.452Z,30.86
2022-08-10T01:30:33.102Z,30.86
2022-08-10T01:34:02.247Z,30.99
2022-08-10T01:37:03.520Z,31.03
2022-08-10T01:40:08.117Z,31.19
2022-08-10T01:43:08.469Z,31.24
2022-08-10T01:46:03.163Z,31.30
2022-08-10T01:48:58.365Z,31.35
2022-08-10T01:52:02.428Z,31.46
2022-08-10T01:54:53.358Z,31.53
2022-08-10T01:57:40.311Z,31.56
2022-08-10T02:00:29.390Z,31.64
2022-08-10T02:03:27.230Z,31.69
2022-08-10T02:06:24.098Z,31.78
2022-08-10T02:09:08.149Z,31.74
2022-08-10T02:12:08.145Z,31.91
2022-08-10T02:14:53.179Z,32.39
2022-08-10T02:18:00.669Z,32.93
2022-08-10T02:20:48.988Z,33.83
2022-08-10T02:23:42.383Z,34.36
2022-08-10T02:26:24.907Z,35.13
2022-08-10T02:29:14.364Z,35.78
2022-08-10T02:32:04.633Z,36.00
2022-08-10T02:34:49.357Z,35.99
2022-08-10T02:37:32.713Z,36.74
2022-08-10T02:42:18.162Z,37.12
2022-08-10T02:45:17.970Z,37.30
2022-08-10T02:47:16.190Z,37.19
2022-08-10T02:50:10.279Z,36.72
2022-08-10T02:53:51.741Z,36.23
2022-08-10T02:57:02.480Z,35.55
2022-08-10T02:59:47.920Z,35.53
2022-08-10T03:02:55.149Z,35.47
2022-08-10T03:05:44.550Z,35.11
2022-08-10T03:08:30.371Z,34.87
2022-08-10T03:12:16.779Z,34.86
2022-08-10T03:14:33.087Z,34.51
2022-08-10T03:17:23.657Z,34.73
2022-08-10T03:20:38.400Z,34.16
2022-08-10T03:23:17.083Z,34.79
2022-08-10T03:26:10.373Z,34.81
2022-08-10T03:28:54.818Z,35.17
2022-08-10T03:31:44.107Z,35.26
2022-08-10T03:34:35.172Z,35.40
2022-08-10T03:37:24.261Z,35.83
2022-08-10T03:40:15.354Z,35.65
2022-08-10T03:42:59.561Z,35.94
2022-08-10T03:45:55.769Z,35.87
2022-08-10T03:48:48.922Z,35.87
2022-08-10T03:51:39.364Z,34.95
2022-08-10T03:54:21.703Z,35.55
2022-08-10T03:57:10.361Z,35.59
2022-08-10T03:59:59.633Z,36.00
2022-08-10T04:02:48.337Z,35.89
2022-08-10T04:05:38.851Z,36.10
2022-08-10T04:08:21.593Z,36.09
2022-08-10T04:11:10.121Z,36.18
2022-08-10T04:13:58.434Z,36.19
2022-08-10T04:16:40.363Z,36.21
2022-08-10T04:19:23.949Z,36.57
2022-08-10T04:22:20.379Z,36.82
2022-08-10T04:25:06.373Z,36.82
2022-08-10T04:27:56.358Z,36.62
2022-08-10T04:30:46.294Z,37.32
2022-08-10T04:33:32.256Z,37.07
2022-08-10T04:36:16.401Z,37.68
2022-08-10T04:39:07.434Z,37.88
2022-08-10T04:41:56.381Z,38.18
2022-08-10T04:44:45.113Z,38.60
2022-08-10T04:47:57.663Z,38.42
2022-08-10T04:50:36.359Z,38.63
2022-08-10T04:53:26.695Z,38.61
2022-08-10T04:56:09.111Z,38.57
2022-08-10T04:58:57.847Z,38.75
2022-08-10T05:02:22.306Z,38.31
2022-08-10T05:04:54.919Z,38.74
2022-08-10T05:07:53.849Z,38.85
2022-08-10T05:10:43.133Z,38.49
2022-08-10T05:13:25.210Z,39.17
2022-08-10T05:16:30.771Z,38.92
2022-08-10T05:20:01.824Z,39.27
2022-08-10T05:22:30.137Z,38.82
2022-08-10T05:25:22.145Z,38.38
2022-08-10T05:28:11.122Z,39.00
2022-08-10T05:30:53.335Z,38.83
2022-08-10T05:33:42.123Z,39.40
2022-08-10T05:36:31.344Z,38.60
2022-08-10T05:39:13.532Z,38.75
2022-08-10T05:42:03.147Z,38.96
2022-08-10T05:44:45.271Z,38.80
2022-08-10T05:48:55.529Z,38.86
2022-08-10T05:50:37.620Z,39.30
2022-08-10T05:54:02.480Z,39.17
2022-08-10T05:56:53.007Z,39.19
2022-08-10T06:00:10.758Z,39.12
2022-08-10T06:02:57.163Z,38.98
2022-08-10T06:05:55.225Z,39.27
2022-08-10T06:08:47.351Z,39.08
2022-08-10T06:12:26.786Z,38.99
2022-08-10T06:15:05.691Z,39.22
2022-08-10T06:18:01.957Z,38.61
2022-08-10T06:20:45.410Z,39.15
2022-08-10T06:23:34.347Z,39.60
2022-08-10T06:26:20.998Z,38.72
2022-08-10T06:29:22.334Z,38.71
2022-08-10T06:32:06.047Z,38.54
2022-08-10T06:35:01.357Z,39.40
2022-08-10T06:37:50.749Z,39.83
2022-08-10T06:40:44.366Z,39.39
2022-08-10T06:43:34.778Z,39.47
2022-08-10T06:46:24.380Z,39.24
2022-08-10T06:49:17.770Z,39.15
2022-08-10T06:52:04.370Z,39.48
2022-08-10T06:54:53.375Z,39.12
2022-08-10T06:57:40.436Z,39.46
2022-08-10T07:00:34.011Z,39.70
2022-08-10T07:03:26.121Z,39.54
2022-08-10T07:06:27.391Z,39.57
2022-08-10T07:09:15.393Z,39.71
2022-08-10T07:12:08.013Z,39.81
2022-08-10T07:14:53.273Z,39.99
2022-08-10T07:17:45.142Z,39.77
2022-08-10T07:20:29.004Z,39.99
2022-08-10T07:23:57.240Z,39.82
2022-08-10T07:26:23.577Z,39.85
2022-08-10T07:29:26.784Z,39.91
2022-08-10T07:32:16.569Z,39.44
2022-08-10T07:35:07.355Z,39.90
2022-08-10T07:37:52.720Z,39.73
2022-08-10T07:40:41.138Z,39.34
2022-08-10T07:43:33.708Z,39.75
2022-08-10T07:46:22.124Z,39.13
2022-08-10T07:49:19.683Z,38.89
2022-08-10T07:52:10.387Z,39.38
2022-08-10T07:54:55.495Z,38.74
2022-08-10T07:57:47.135Z,37.47
2022-08-10T08:00:32.441Z,38.07
2022-08-10T08:03:22.139Z,38.51
2022-08-10T08:06:19.237Z,37.80
2022-08-10T08:09:16.139Z,38.11
2022-08-10T08:11:59.445Z,38.05
2022-08-10T08:14:52.406Z,38.00
2022-08-10T08:17:37.538Z,37.95
2022-08-10T08:20:27.132Z,38.08
2022-08-10T08:24:10.566Z,38.01
2022-08-10T08:26:21.384Z,38.22
2022-08-10T08:29:11.403Z,37.89
2022-08-10T08:32:01.731Z,38.24
2022-08-10T08:34:53.151Z,38.21
2022-08-10T08:38:33.127Z,38.62
2022-08-10T08:40:56.394Z,38.46
2022-08-10T08:44:22.393Z,38.13
2022-08-10T08:48:05.227Z,37.95
2022-08-10T08:51:11.729Z,37.72
2022-08-10T08:54:16.387Z,37.49
2022-08-10T08:57:22.970Z,37.19
2022-08-10T09:00:55.684Z,37.61
2022-08-10T09:03:40.193Z,37.82
2022-08-10T09:06:57.321Z,37.74
2022-08-10T09:10:19.388Z,38.12
2022-08-10T09:13:28.028Z,37.75
2022-08-10T09:16:38.163Z,37.93
2022-08-10T09:19:50.675Z,38.12
2022-08-10T09:22:47.388Z,37.67
2022-08-10T09:25:46.335Z,38.04
2022-08-10T09:28:45.406Z,37.96
2022-08-10T09:32:55.020Z,38.10
2022-08-10T09:36:21.069Z,37.94
2022-08-10T09:39:06.437Z,37.83
2022-08-10T09:42:14.569Z,37.51
2022-08-10T09:45:25.284Z,37.71
2022-08-10T09:48:20.135Z,37.98
2022-08-10T09:51:44.848Z,38.05
2022-08-10T09:55:23.392Z,38.18
2022-08-10T09:58:39.997Z,37.99
2022-08-10T10:02:03.071Z,38.13
2022-08-10T10:05:00.833Z,37.94
2022-08-10T10:07:54.479Z,38.20
2022-08-10T10:11:18.162Z,38.21
2022-08-10T10:14:12.318Z,38.25
2022-08-10T10:17:09.133Z,38.14
2022-08-10T10:20:20.362Z,38.17
2022-08-10T10:23:38.384Z,38.27
2022-08-10T10:26:23.288Z,38.06
2022-08-10T10:29:57.048Z,37.81
2022-08-10T10:32:58.134Z,38.16
2022-08-10T10:36:09.133Z,38.17
2022-08-10T10:38:53.134Z,38.39
2022-08-10T10:42:03.903Z,37.94
2022-08-10T10:45:08.074Z,37.79
2022-08-10T10:48:00.157Z,37.73
2022-08-10T10:51:22.485Z,37.83
2022-08-10T10:54:20.151Z,37.60
2022-08-10T10:57:17.618Z,37.50
2022-08-10T11:00:21.142Z,37.46
2022-08-10T11:03:28.375Z,37.57
2022-08-10T11:06:43.408Z,37.53
2022-08-10T11:10:03.888Z,37.48
2022-08-10T11:14:22.739Z,37.40
2022-08-10T11:16:20.356Z,37.22
2022-08-10T11:19:18.150Z,37.35
2022-08-10T11:22:29.420Z,37.30
2022-08-10T11:25:41.140Z,37.28
2022-08-10T11:28:37.000Z,37.21
2022-08-10T11:31:28.832Z,37.19
2022-08-10T11:34:48.751Z,37.63
2022-08-10T11:38:34.660Z,37.40
2022-08-10T11:42:09.257Z,37.54
2022-08-10T11:44:58.145Z,37.52
2022-08-10T11:48:52.833Z,37.44
2022-08-10T11:51:44.043Z,37.41
2022-08-10T11:54:36.147Z,37.40
2022-08-10T11:57:21.163Z,37.27
2022-08-10T12:00:10.429Z,37.10
2022-08-10T12:03:10.542Z,37.00
2022-08-10T12:06:02.158Z,36.83
2022-08-10T12:10:03.974Z,36.72
2022-08-10T12:12:02.387Z,36.77
2022-08-10T12:15:18.862Z,36.77
2022-08-10T12:18:09.398Z,36.58
2022-08-10T12:21:05.424Z,36.70
2022-08-10T12:24:05.149Z,36.96
2022-08-10T12:27:13.506Z,37.18
2022-08-10T12:30:21.395Z,37.29
2022-08-10T12:34:02.154Z,37.16
2022-08-10T12:36:50.129Z,37.43
2022-08-10T12:39:41.360Z,37.44
2022-08-10T12:43:01.515Z,37.68
2022-08-10T12:46:11.711Z,37.78
2022-08-10T12:49:11.152Z,37.60
2022-08-10T12:52:14.589Z,37.61
2022-08-10T12:55:00.293Z,37.38
2022-08-10T12:57:50.373Z,37.53
2022-08-10T13:01:12.857Z,37.60
2022-08-10T13:04:21.150Z,37.59
2022-08-10T13:07:06.378Z,37.54
2022-08-10T13:10:02.413Z,37.41
2022-08-10T13:13:09.384Z,37.42
2022-08-10T13:16:00.674Z,37.27
2022-08-10T13:18:48.134Z,37.18
2022-08-10T13:21:37.531Z,37.14
2022-08-10T13:24:30.382Z,36.83
2022-08-10T13:27:59.698Z,36.92
2022-08-10T13:30:50.872Z,36.91
2022-08-10T13:34:40.259Z,36.90
2022-08-10T13:37:41.211Z,36.95
2022-08-10T13:40:47.190Z,36.79
2022-08-10T13:44:06.096Z,36.73
2022-08-10T13:47:16.160Z,36.73
2022-08-10T13:50:34.520Z,36.87
2022-08-10T13:53:44.139Z,36.77
2022-08-10T13:56:49.856Z,36.50
2022-08-10T14:00:33.971Z,36.63
2022-08-10T14:03:25.899Z,36.53
2022-08-10T14:06:36.398Z,36.13
2022-08-10T14:09:40.296Z,36.47
2022-08-10T14:12:58.131Z,36.43
2022-08-10T14:16:16.898Z,36.26
2022-08-10T14:19:32.976Z,36.33
2022-08-10T14:22:43.563Z,36.08
2022-08-10T14:26:08.478Z,36.15
2022-08-10T14:29:20.303Z,36.05
2022-08-10T14:32:33.369Z,36.16
2022-08-10T14:36:19.980Z,36.00
2022-08-10T14:39:13.468Z,35.99
2022-08-10T14:42:27.239Z,35.95
2022-08-10T14:45:37.150Z,35.47
2022-08-10T14:48:52.187Z,35.86
2022-08-10T14:51:56.771Z,35.90
2022-08-10T14:55:05.039Z,35.84
2022-08-10T14:58:24.632Z,35.71
2022-08-10T15:02:01.014Z,35.83
2022-08-10T15:05:09.113Z,35.87
2022-08-10T15:08:19.390Z,35.60
2022-08-10T15:12:12.243Z,35.73
2022-08-10T15:15:04.367Z,35.58
2022-08-10T15:18:08.884Z,35.57
2022-08-10T15:21:28.414Z,35.51
2022-08-10T15:24:55.959Z,35.40
2022-08-10T15:28:06.640Z,35.48
2022-08-10T15:31:07.181Z,35.46
2022-08-10T15:34:37.097Z,35.43
2022-08-10T15:37:41.447Z,35.41
2022-08-10T15:40:54.138Z,35.52
2022-08-10T15:43:56.877Z,35.42
2022-08-10T15:47:10.470Z,35.28
2022-08-10T15:50:26.482Z,35.30
2022-08-10T15:54:02.167Z,35.31
2022-08-10T15:57:19.392Z,35.14
2022-08-10T16:00:31.158Z,35.12
2022-08-10T16:03:45.179Z,35.09
2022-08-10T16:07:15.501Z,35.02
2022-08-10T16:10:36.667Z,34.94
2022-08-10T16:14:01.101Z,34.86
2022-08-10T16:17:10.136Z,35.03
2022-08-10T16:20:12.505Z,34.87
2022-08-10T16:23:06.034Z,34.97
2022-08-10T16:25:58.460Z,34.98
2022-08-10T16:29:13.400Z,35.02
2022-08-10T16:32:15.155Z,34.99
2022-08-10T16:35:09.376Z,34.84
2022-08-10T16:37:59.839Z,34.80
2022-08-10T16:40:44.754Z,35.01
2022-08-10T16:43:37.130Z,34.61
2022-08-10T16:46:29.119Z,34.77
2022-08-10T16:49:15.701Z,34.79
2022-08-10T16:52:05.121Z,34.94
2022-08-10T16:54:50.274Z,34.88
2022-08-10T16:57:46.127Z,34.57
2022-08-10T17:00:30.422Z,34.74
2022-08-10T17:04:05.326Z,34.76
2022-08-10T17:07:02.362Z,34.79
2022-08-10T17:10:00.151Z,34.63
2022-08-10T17:12:53.385Z,34.73
2022-08-10T17:15:49.143Z,34.60
2022-08-10T17:18:46.854Z,34.86
2022-08-10T17:21:32.749Z,34.77
2022-08-10T17:24:21.400Z,34.46
2022-08-10T17:28:04.910Z,34.35
2022-08-10T17:30:27.586Z,34.27
2022-08-10T17:33:30.115Z,34.26
2022-08-10T17:36:23.006Z,34.11
2022-08-10T17:39:07.679Z,33.99
2022-08-10T17:42:00.367Z,34.16
2022-08-10T17:44:46.470Z,34.17
2022-08-10T17:47:35.348Z,34.04
2022-08-10T17:50:18.491Z,34.08
2022-08-10T17:53:21.429Z,34.10
2022-08-10T17:56:12.035Z,34.09
2022-08-10T17:59:01.600Z,34.18
2022-08-10T18:01:58.369Z,34.19
2022-08-10T18:04:52.960Z,34.16
2022-08-10T18:07:51.383Z,34.13
2022-08-10T18:10:40.370Z,34.14
2022-08-10T18:13:27.555Z,34.16
2022-08-10T18:16:46.402Z,34.11
2022-08-10T18:19:32.050Z,34.10
2022-08-10T18:22:25.382Z,34.07
2022-08-10T18:25:16.565Z,34.10
2022-08-10T18:28:03.575Z,34.04
2022-08-10T18:30:57.734Z,34.02
2022-08-10T18:33:43.151Z,33.98
2022-08-10T18:36:34.663Z,34.02
2022-08-10T18:39:19.399Z,34.02
2022-08-10T18:42:11.382Z,34.02
2022-08-10T18:45:09.114Z,34.04
2022-08-10T18:48:20.608Z,33.98
2022-08-10T18:51:11.382Z,33.95
2022-08-10T18:54:07.685Z,33.88
2022-08-10T18:57:24.385Z,33.98
2022-08-10T19:00:17.066Z,33.98
2022-08-10T19:03:22.118Z,33.96
2022-08-10T19:06:20.779Z,33.93
2022-08-10T19:09:45.892Z,33.92
2022-08-10T19:12:57.665Z,33.61
2022-08-10T19:15:51.380Z,33.77
2022-08-10T19:18:58.658Z,33.92
2022-08-10T19:21:53.361Z,33.82
2022-08-10T19:24:55.837Z,33.89
2022-08-10T19:28:20.155Z,33.97
2022-08-10T19:31:59.135Z,33.86
2022-08-10T19:35:16.690Z,34.02
2022-08-10T19:38:49.493Z,34.01
2022-08-10T19:41:45.298Z,33.94
2022-08-10T19:44:45.131Z,33.95
2022-08-10T19:47:55.634Z,33.92
2022-08-10T19:51:02.151Z,33.81
2022-08-10T19:53:49.759Z,33.78
2022-08-10T19:57:10.211Z,33.78
2022-08-10T20:00:26.892Z,33.85
2022-08-10T20:03:24.359Z,33.89
2022-08-10T20:06:33.755Z,33.84
2022-08-10T20:09:46.357Z,33.83
2022-08-10T20:12:37.345Z,33.79
2022-08-10T20:16:19.110Z,33.85
2022-08-10T20:19:53.498Z,33.76
2022-08-10T20:22:53.390Z,33.74
2022-08-10T20:25:41.097Z,33.62
2022-08-10T20:28:55.535Z,33.62
2022-08-10T20:31:48.174Z,33.70
2022-08-10T20:34:55.068Z,33.59
2022-08-10T20:38:02.998Z,33.51
2022-08-10T20:41:10.130Z,33.51
2022-08-10T20:44:16.399Z,33.43
2022-08-10T20:47:11.358Z,33.51
2022-08-10T20:50:09.546Z,33.40
2022-08-10T20:53:00.377Z,33.48
2022-08-10T20:56:00.128Z,33.44
2022-08-10T20:59:33.461Z,33.50
2022-08-10T21:02:48.993Z,33.34
2022-08-10T21:06:02.662Z,33.29
2022-08-10T21:09:07.409Z,33.38
2022-08-10T21:12:16.520Z,33.40
2022-08-10T21:15:42.061Z,33.35
2022-08-10T21:19:30.024Z,33.24
2022-08-10T21:22:28.358Z,33.19
2022-08-10T21:25:15.683Z,33.10
2022-08-10T21:28:06.148Z,33.25
2022-08-10T21:31:31.129Z,33.29
2022-08-10T21:34:36.553Z,33.26
2022-08-10T21:37:41.367Z,33.19
2022-08-10T21:40:37.394Z,33.23
2022-08-10T21:44:22.369Z,33.22
2022-08-10T21:48:07.236Z,33.26
2022-08-10T21:52:01.126Z,33.23
2022-08-10T21:55:14.132Z,33.16
2022-08-10T21:58:44.418Z,33.13
2022-08-10T22:02:11.333Z,33.14
2022-08-10T22:05:11.957Z,33.09
2022-08-10T22:08:24.372Z,33.13
2022-08-10T22:11:27.046Z,33.07
2022-08-10T22:14:35.083Z,33.07
2022-08-10T22:18:03.679Z,33.11
2022-08-10T22:21:16.089Z,33.12
2022-08-10T22:24:41.421Z,32.93
2022-08-10T22:28:06.340Z,32.95
2022-08-10T22:35:11.715Z,32.91
2022-08-10T22:38:49.067Z,32.91
2022-08-10T22:42:07.986Z,32.88
2022-08-10T22:45:19.985Z,32.84
2022-08-10T22:48:29.335Z,32.92
2022-08-10T22:51:28.624Z,32.93
2022-08-10T22:54:46.100Z,32.68
2022-08-10T22:57:54.072Z,32.75
2022-08-10T23:00:38.305Z,32.78
2022-08-10T23:03:31.090Z,32.69
2022-08-10T23:06:22.422Z,32.75
2022-08-10T23:09:16.983Z,32.66
2022-08-10T23:12:08.312Z,32.71
2022-08-10T23:15:00.209Z,32.68
2022-08-10T23:18:07.040Z,32.73
2022-08-10T23:21:05.331Z,32.70
2022-08-10T23:23:48.963Z,32.66
2022-08-10T23:26:41.356Z,32.70
2022-08-10T23:29:30.368Z,32.68
2022-08-10T23:32:24.339Z,32.71
2022-08-10T23:36:30.827Z,32.64
2022-08-10T23:38:36.053Z,32.65
2022-08-10T23:41:33.362Z,32.50
2022-08-10T23:44:21.008Z,32.55
2022-08-10T23:47:04.893Z,32.58
2022-08-10T23:49:53.327Z,32.60
2022-08-10T23:52:36.597Z,32.54
2022-08-10T23:55:48.768Z,32.61
2022-08-10T23:58:52.088Z,32.54
